createdAt,value
2023-03-04T00:00:28.352Z,47.25
2023-03-04T00:02:31.139Z,49.80
2023-03-04T00:04:33.967Z,53.30
2023-03-04T00:06:36.719Z,49.00
2023-03-04T00:08:39.494Z,51.67
2023-03-04T00:10:43.807Z,45.30
2023-03-04T00:12:46.547Z,36.92
2023-03-04T00:14:49.392Z,39.58
2023-03-04T00:16:52.236Z,37.75
2023-03-04T00:18:55.098Z,35.33
2023-03-04T00:20:57.861Z,34.25
2023-03-04T00:23:00.646Z,34.78
2023-03-04T00:25:03.488Z,33.90
2023-03-04T00:27:07.584Z,36.40
2023-03-04T00:29:10.454Z,31.95
2023-03-04T00:31:13.901Z,33.67
2023-03-04T00:33:17.151Z,32.35
2023-03-04T00:35:20.127Z,34.80
2023-03-04T00:37:23.036Z,32.90
2023-03-04T00:39:26.383Z,30.95
2023-03-04T00:41:29.160Z,36.22
2023-03-04T00:43:33.381Z,33.70
2023-03-04T00:45:36.374Z,35.20
2023-03-04T00:47:39.187Z,34.78
2023-03-04T00:49:42.058Z,33.90
2023-03-04T00:51:44.905Z,31.92
2023-03-04T00:53:47.998Z,34.75
2023-03-04T00:55:53.349Z,31.58
2023-03-04T00:57:56.184Z,34.88
2023-03-04T01:00:00.336Z,30.67
2023-03-04T01:02:03.173Z,30.92
2023-03-04T01:04:06.189Z,34.70
2023-03-04T01:06:09.758Z,31.33
2023-03-04T01:08:12.592Z,33.88
2023-03-04T01:10:16.736Z,32.88
2023-03-04T01:12:19.856Z,36.10
2023-03-04T01:14:22.677Z,31.63
2023-03-04T01:16:27.002Z,32.63
2023-03-04T01:18:30.644Z,34.25
2023-03-04T01:20:33.750Z,32.40
2023-03-04T01:22:36.626Z,36.83
2023-03-04T01:24:39.542Z,35.20
2023-03-04T01:26:42.447Z,35.92
2023-03-04T01:28:45.257Z,35.15
2023-03-04T01:30:48.145Z,35.20
2023-03-04T01:32:52.297Z,33.50
2023-03-04T01:34:55.078Z,34.83
2023-03-04T01:36:57.922Z,36.47
2023-03-04T01:39:00.731Z,37.65
2023-03-04T01:41:03.845Z,36.53
2023-03-04T01:43:07.961Z,37.65
2023-03-04T01:45:15.335Z,40.60
2023-03-04T01:47:19.096Z,37.65
2023-03-04T01:49:24.116Z,36.58
2023-03-04T01:51:26.931Z,37.63
2023-03-04T01:53:30.630Z,35.70
2023-03-04T01:55:33.935Z,36.13
2023-03-04T01:57:37.241Z,37.13
2023-03-04T01:59:40.075Z,30.42
2023-03-04T02:01:45.360Z,36.63
2023-03-04T02:03:48.199Z,38.13
2023-03-04T02:05:54.359Z,36.28
2023-03-04T02:07:59.312Z,34.42
2023-03-04T02:10:02.207Z,35.22
2023-03-04T02:12:05.399Z,36.80
2023-03-04T02:14:08.550Z,36.13
2023-03-04T02:16:11.307Z,34.67
2023-03-04T02:18:17.642Z,38.30
2023-03-04T02:20:32.761Z,35.97
2023-03-04T02:22:44.058Z,38.85
2023-03-04T02:24:51.244Z,34.85
2023-03-04T02:26:55.687Z,36.33
2023-03-04T02:29:01.034Z,38.08
2023-03-04T02:31:03.890Z,32.75
2023-03-04T02:33:07.139Z,38.88
2023-03-04T02:35:17.175Z,37.17
2023-03-04T02:37:21.977Z,37.53
2023-03-04T02:39:32.641Z,37.45
2023-03-04T02:41:35.800Z,36.38
2023-03-04T02:43:39.939Z,38.38
2023-03-04T02:45:45.865Z,40.13
2023-03-04T02:47:48.738Z,36.47
2023-03-04T02:49:51.576Z,37.53
2023-03-04T02:52:00.074Z,43.13
2023-03-04T02:54:03.932Z,37.13
2023-03-04T02:56:07.293Z,36.05
2023-03-04T02:58:13.136Z,35.70
2023-03-04T03:00:18.158Z,35.90
2023-03-04T03:02:20.993Z,39.47
2023-03-04T03:04:24.878Z,42.65
2023-03-04T03:06:29.651Z,41.70
2023-03-04T03:08:32.498Z,41.30
2023-03-04T03:10:37.322Z,39.00
2023-03-04T03:12:42.362Z,43.63
2023-03-04T03:14:45.188Z,39.58
2023-03-04T03:16:51.517Z,39.28
2023-03-04T03:18:54.424Z,40.85
2023-03-04T03:20:58.234Z,37.30
2023-03-04T03:23:00.988Z,39.60
2023-03-04T03:25:04.692Z,42.78
2023-03-04T03:27:07.527Z,42.97
2023-03-04T03:29:10.393Z,47.65
2023-03-04T03:31:13.280Z,47.25
2023-03-04T03:33:17.696Z,40.70
2023-03-04T03:35:20.657Z,39.63
2023-03-04T03:37:23.492Z,39.10
2023-03-04T03:39:26.274Z,43.63
2023-03-04T03:41:29.070Z,49.60
2023-03-04T03:43:31.868Z,47.90
2023-03-04T03:45:34.700Z,42.03
2023-03-04T03:47:37.637Z,41.20
2023-03-04T03:49:41.769Z,44.13
2023-03-04T03:51:44.683Z,39.15
2023-03-04T03:53:47.476Z,38.78
2023-03-04T03:55:50.259Z,37.15
2023-03-04T03:57:53.003Z,39.45
2023-03-04T03:59:55.817Z,34.83
2023-03-04T04:01:58.638Z,37.70
2023-03-04T04:04:01.533Z,36.60
2023-03-04T04:06:06.109Z,39.58
2023-03-04T04:08:08.963Z,37.78
2023-03-04T04:10:12.592Z,38.13
2023-03-04T04:12:16.661Z,34.75
2023-03-04T04:14:19.445Z,37.90
2023-03-04T04:16:22.549Z,33.55
2023-03-04T04:18:25.902Z,33.03
2023-03-04T04:20:28.883Z,34.72
2023-03-04T04:22:33.149Z,34.55
2023-03-04T04:24:36.191Z,38.95
2023-03-04T04:26:39.002Z,36.92
2023-03-04T04:28:41.832Z,34.90
2023-03-04T04:30:44.704Z,32.80
2023-03-04T04:32:47.529Z,32.10
2023-03-04T04:34:50.295Z,36.03
2023-03-04T04:36:53.172Z,36.40
2023-03-04T04:38:57.593Z,35.28
2023-03-04T04:41:01.021Z,34.05
2023-03-04T04:43:04.015Z,37.63
2023-03-04T04:45:08.340Z,33.28
2023-03-04T04:47:11.178Z,34.60
2023-03-04T04:49:13.037Z,32.72
2023-03-04T04:51:15.927Z,36.83
2023-03-04T04:53:18.675Z,35.47
2023-03-04T04:55:22.767Z,36.10
2023-03-04T04:57:25.828Z,38.58
2023-03-04T04:59:28.612Z,33.13
2023-03-04T05:01:31.682Z,33.60
2023-03-04T05:03:35.414Z,34.30
2023-03-04T05:05:38.136Z,32.35
2023-03-04T05:07:40.932Z,36.97
2023-03-04T05:09:43.703Z,33.08
2023-03-04T05:11:47.860Z,37.00
2023-03-04T05:13:50.744Z,37.92
2023-03-04T05:15:54.156Z,37.65
2023-03-04T05:17:57.421Z,32.88
2023-03-04T05:20:00.201Z,36.75
2023-03-04T05:22:02.990Z,34.47
2023-03-04T05:24:06.096Z,32.33
2023-03-04T05:26:10.105Z,34.35
2023-03-04T05:28:14.574Z,31.58
2023-03-04T05:30:17.569Z,36.33
2023-03-04T05:32:20.316Z,39.30
2023-03-04T05:34:23.141Z,40.60
2023-03-04T05:36:25.897Z,46.45
2023-03-04T05:38:28.671Z,44.92
2023-03-04T05:40:31.471Z,38.38
2023-03-04T05:42:34.221Z,33.78
2023-03-04T05:44:38.318Z,40.50
2023-03-04T05:46:41.123Z,42.00
2023-03-04T05:48:44.848Z,37.83
2023-03-04T05:50:47.757Z,38.42
2023-03-04T05:52:50.829Z,40.40
2023-03-04T05:54:53.624Z,40.47
2023-03-04T05:56:56.366Z,34.83
2023-03-04T05:58:59.288Z,37.22
2023-03-04T06:01:04.066Z,33.53
2023-03-04T06:03:06.801Z,37.92
2023-03-04T06:05:11.016Z,32.97
2023-03-04T06:07:13.732Z,34.67
2023-03-04T06:09:16.817Z,36.40
2023-03-04T06:11:19.521Z,35.75
2023-03-04T06:13:22.961Z,30.88
2023-03-04T06:15:25.712Z,32.20
2023-03-04T06:17:30.371Z,30.40
2023-03-04T06:19:33.083Z,29.90
2023-03-04T06:21:35.848Z,29.10
2023-03-04T06:23:38.683Z,32.30
2023-03-04T06:25:41.441Z,30.88
2023-03-04T06:27:44.157Z,30.75
2023-03-04T06:29:46.901Z,30.58
2023-03-04T06:31:49.648Z,30.83
2023-03-04T06:33:53.720Z,30.63
2023-03-04T06:35:58.335Z,32.75
2023-03-04T06:38:01.199Z,30.27
2023-03-04T06:40:04.596Z,32.92
2023-03-04T06:42:07.446Z,30.85
2023-03-04T06:44:10.468Z,32.97
2023-03-04T06:46:13.337Z,35.20
2023-03-04T06:48:16.068Z,33.47
2023-03-04T06:50:20.368Z,39.25
2023-03-04T06:52:23.137Z,29.33
2023-03-04T06:54:25.971Z,37.85
2023-03-04T06:56:29.012Z,31.15
2023-03-04T06:58:31.902Z,34.30
2023-03-04T07:00:34.829Z,32.13
2023-03-04T07:02:37.664Z,30.95
2023-03-04T07:04:40.831Z,30.90
2023-03-04T07:06:44.947Z,27.92
2023-03-04T07:08:48.034Z,30.50
2023-03-04T07:10:50.883Z,27.15
2023-03-04T07:12:53.622Z,29.63
2023-03-04T07:14:56.346Z,25.73
2023-03-04T07:16:59.189Z,28.13
2023-03-04T07:19:02.663Z,27.25
2023-03-04T07:21:06.707Z,25.40
2023-03-04T07:23:10.824Z,25.42
2023-03-04T07:25:14.012Z,24.55
2023-03-04T07:27:16.842Z,22.70
2023-03-04T07:29:19.680Z,22.98
2023-03-04T07:31:24.813Z,23.52
2023-03-04T07:33:27.627Z,23.92
2023-03-04T07:35:30.406Z,25.65
2023-03-04T07:37:33.169Z,22.33
2023-03-04T07:39:37.297Z,22.05
2023-03-04T07:41:40.716Z,20.70
2023-03-04T07:43:44.038Z,23.85
2023-03-04T07:45:46.862Z,20.20
2023-03-04T07:47:49.617Z,22.50
2023-03-04T07:49:52.383Z,22.73
2023-03-04T07:51:55.137Z,23.50
2023-03-04T07:53:59.451Z,24.25
2023-03-04T07:56:03.744Z,23.35
2023-03-04T07:58:06.494Z,27.63
2023-03-04T08:00:12.216Z,40.67
2023-03-04T08:02:17.985Z,25.63
2023-03-04T08:04:20.783Z,21.98
2023-03-04T08:06:24.531Z,19.10
2023-03-04T08:08:27.267Z,23.73
2023-03-04T08:10:30.008Z,22.52
2023-03-04T08:12:34.125Z,20.40
2023-03-04T08:14:36.929Z,18.40
2023-03-04T08:16:39.913Z,27.95
2023-03-04T08:18:43.765Z,21.08
2023-03-04T08:20:46.505Z,21.58
2023-03-04T08:22:49.266Z,23.00
2023-03-04T08:24:52.046Z,22.00
2023-03-04T08:26:55.242Z,21.75
2023-03-04T08:29:01.558Z,21.38
2023-03-04T08:31:04.537Z,21.73
2023-03-04T08:33:07.934Z,22.38
2023-03-04T08:35:10.682Z,24.30
2023-03-04T08:37:13.393Z,19.83
2023-03-04T08:39:18.078Z,25.05
2023-03-04T08:41:20.914Z,23.85
2023-03-04T08:43:25.541Z,25.48
2023-03-04T08:45:29.702Z,24.33
2023-03-04T08:47:32.433Z,24.80
2023-03-04T08:49:35.145Z,25.42
2023-03-04T08:51:37.926Z,24.40
2023-03-04T08:53:40.990Z,23.45
2023-03-04T08:55:44.903Z,24.45
2023-03-04T08:57:47.768Z,21.13
2023-03-04T08:59:50.514Z,20.67
2023-03-04T09:01:54.634Z,18.58
2023-03-04T09:03:57.488Z,24.10
2023-03-04T09:06:02.644Z,23.30
2023-03-04T09:08:05.580Z,22.80
2023-03-04T09:10:09.454Z,22.52
2023-03-04T09:12:12.322Z,24.50
2023-03-04T09:14:15.129Z,24.60
2023-03-04T09:16:18.106Z,25.88
2023-03-04T09:18:24.267Z,23.13
2023-03-04T09:20:27.125Z,26.65
2023-03-04T09:22:29.838Z,23.48
2023-03-04T09:24:32.631Z,25.45
2023-03-04T09:26:35.404Z,24.50
2023-03-04T09:28:38.159Z,25.05
2023-03-04T09:30:41.281Z,25.40
2023-03-04T09:32:44.013Z,24.77
2023-03-04T09:34:48.177Z,25.23
2023-03-04T09:36:50.935Z,27.85
2023-03-04T09:38:53.737Z,25.67
2023-03-04T09:40:57.511Z,24.17
2023-03-04T09:43:04.306Z,26.17
2023-03-04T09:45:08.829Z,24.17
2023-03-04T09:47:15.266Z,22.75
2023-03-04T09:49:20.353Z,21.88
2023-03-04T09:51:42.653Z,21.70
2023-03-04T09:53:55.372Z,26.42
2023-03-04T09:55:59.068Z,22.13
2023-03-04T09:58:07.991Z,27.33
2023-03-04T10:00:19.842Z,24.85
2023-03-04T10:02:32.775Z,26.58
2023-03-04T10:04:41.157Z,23.20
2023-03-04T10:06:51.562Z,36.60
2023-03-04T10:09:00.757Z,30.38
2023-03-04T10:11:07.492Z,26.08
2023-03-04T10:13:16.268Z,27.90
2023-03-04T10:15:28.666Z,34.65
2023-03-04T10:17:37.907Z,25.02
2023-03-04T10:19:56.422Z,25.52
2023-03-04T10:22:00.530Z,24.48
2023-03-04T10:24:12.067Z,25.70
2023-03-04T10:26:17.178Z,26.70
2023-03-04T10:28:24.339Z,26.45
2023-03-04T10:30:41.342Z,26.85
2023-03-04T10:32:47.718Z,34.78
2023-03-04T10:34:50.467Z,25.23
2023-03-04T10:36:59.156Z,24.55
2023-03-04T10:39:07.331Z,25.10
2023-03-04T10:41:14.723Z,27.50
2023-03-04T10:43:19.410Z,28.02
2023-03-04T10:45:36.674Z,24.08
2023-03-04T10:47:39.479Z,27.30
2023-03-04T10:49:52.354Z,27.23
2023-03-04T10:52:02.723Z,28.73
2023-03-04T10:54:11.807Z,27.63
2023-03-04T10:56:36.652Z,28.25
2023-03-04T10:58:39.392Z,38.08
2023-03-04T11:00:42.598Z,30.92
2023-03-04T11:02:46.494Z,30.95
2023-03-04T11:04:55.870Z,26.52
2023-03-04T11:06:58.636Z,26.80
2023-03-04T11:09:01.420Z,27.52
2023-03-04T11:11:22.615Z,28.30
2023-03-04T11:13:28.020Z,29.55
2023-03-04T11:15:32.337Z,27.75
2023-03-04T11:17:44.931Z,39.35
2023-03-04T11:19:52.422Z,31.48
2023-03-04T11:22:00.294Z,32.67
2023-03-04T11:24:13.384Z,33.13
2023-03-04T11:26:31.919Z,30.70
2023-03-04T11:28:45.365Z,29.60
2023-03-04T11:30:51.300Z,32.90
2023-03-04T11:33:01.852Z,31.40
2023-03-04T11:35:16.747Z,29.38
2023-03-04T11:37:26.430Z,30.38
2023-03-04T11:39:35.390Z,28.15
2023-03-04T11:41:43.517Z,25.42
2023-03-04T11:43:48.533Z,34.10
2023-03-04T11:46:11.345Z,27.90
2023-03-04T11:48:24.805Z,26.52
2023-03-04T11:50:36.321Z,28.98
2023-03-04T11:53:09.164Z,27.10
2023-03-04T11:55:30.819Z,31.73
2023-03-04T11:57:42.651Z,30.60
2023-03-04T11:59:54.952Z,28.20
2023-03-04T12:02:12.553Z,29.33
2023-03-04T12:04:28.749Z,29.45
2023-03-04T12:06:44.165Z,28.00
2023-03-04T12:08:59.206Z,26.95
2023-03-04T12:11:06.592Z,37.00
2023-03-04T12:13:48.180Z,31.73
2023-03-04T12:16:01.476Z,28.73
2023-03-04T12:18:22.089Z,27.90
2023-03-04T12:20:41.515Z,29.30
2023-03-04T12:22:46.772Z,28.52
2023-03-04T12:25:10.629Z,27.58
2023-03-04T12:27:25.090Z,29.65
2023-03-04T12:29:39.123Z,28.92
2023-03-04T12:31:44.544Z,27.08
2023-03-04T12:34:00.568Z,27.98
2023-03-04T12:36:14.435Z,30.58
2023-03-04T12:38:31.810Z,27.33
2023-03-04T12:40:44.228Z,29.65
2023-03-04T12:43:00.968Z,28.08
2023-03-04T12:45:16.683Z,25.27
2023-03-04T12:47:29.979Z,26.77
2023-03-04T12:49:52.889Z,27.02
2023-03-04T12:52:04.321Z,31.63
2023-03-04T12:54:20.320Z,35.42
2023-03-04T12:56:27.808Z,27.65
2023-03-04T12:58:34.406Z,27.45
2023-03-04T13:00:54.120Z,30.52
2023-03-04T13:03:08.466Z,27.85
2023-03-04T13:05:46.840Z,32.05
2023-03-04T13:08:00.432Z,30.45
2023-03-04T13:10:09.187Z,28.80
2023-03-04T13:12:17.010Z,31.38
2023-03-04T13:14:31.959Z,27.73
2023-03-04T13:16:40.047Z,28.38
2023-03-04T13:18:45.070Z,30.60
2023-03-04T13:20:48.011Z,31.38
2023-03-04T13:22:55.713Z,40.97
2023-03-04T13:24:59.379Z,28.48
2023-03-04T13:27:04.542Z,29.75
2023-03-04T13:29:27.257Z,28.13
2023-03-04T13:31:30.473Z,30.15
2023-03-04T13:34:04.464Z,26.75
2023-03-04T13:36:26.734Z,31.80
2023-03-04T13:38:36.348Z,28.55
2023-03-04T13:40:39.600Z,30.25
2023-03-04T13:42:45.009Z,29.50
2023-03-04T13:45:06.152Z,27.77
2023-03-04T13:47:10.789Z,32.58
2023-03-04T13:49:23.606Z,28.00
2023-03-04T13:51:30.628Z,31.60
2023-03-04T13:53:44.726Z,29.60
2023-03-04T13:56:07.579Z,30.70
2023-03-04T13:58:19.363Z,34.17
2023-03-04T14:00:22.331Z,30.70
2023-03-04T14:02:27.203Z,28.48
2023-03-04T14:04:35.687Z,29.42
2023-03-04T14:06:42.716Z,29.50
2023-03-04T14:08:45.623Z,27.10
2023-03-04T14:10:56.986Z,30.13
2023-03-04T14:13:01.720Z,29.73
2023-03-04T14:15:07.344Z,29.45
2023-03-04T14:17:19.275Z,30.23
2023-03-04T14:19:26.273Z,29.17
2023-03-04T14:21:31.050Z,30.25
2023-03-04T14:23:36.516Z,26.60
2023-03-04T14:25:39.266Z,31.45
2023-03-04T14:27:42.557Z,27.02
2023-03-04T14:29:45.287Z,27.92
2023-03-04T14:31:48.209Z,27.73
2023-03-04T14:33:54.037Z,27.63
2023-03-04T14:35:59.664Z,28.27
2023-03-04T14:38:07.719Z,26.05
2023-03-04T14:40:21.259Z,25.85
2023-03-04T14:42:26.767Z,24.40
2023-03-04T14:44:35.993Z,29.38
2023-03-04T14:46:42.174Z,23.88
2023-03-04T14:48:50.213Z,28.00
2023-03-04T14:50:55.373Z,30.35
2023-03-04T14:53:16.604Z,27.02
2023-03-04T14:55:22.754Z,24.83
2023-03-04T14:57:27.390Z,27.65
2023-03-04T14:59:34.832Z,27.27
2023-03-04T15:01:38.835Z,31.05
2023-03-04T15:03:44.644Z,31.05
2023-03-04T15:05:47.656Z,34.20
2023-03-04T15:07:56.326Z,31.35
2023-03-04T15:10:03.177Z,26.80
2023-03-04T15:12:09.393Z,28.00
2023-03-04T15:14:44.768Z,28.55
2023-03-04T15:16:55.831Z,28.75
2023-03-04T15:19:02.034Z,27.20
2023-03-04T15:21:06.800Z,29.45
2023-03-04T15:23:14.625Z,28.38
2023-03-04T15:25:20.420Z,26.52
2023-03-04T15:27:25.112Z,29.27
2023-03-04T15:29:27.867Z,25.42
2023-03-04T15:31:31.124Z,28.40
2023-03-04T15:33:33.973Z,31.10
2023-03-04T15:35:36.895Z,30.88
2023-03-04T15:37:41.670Z,26.40
2023-03-04T15:39:44.401Z,31.15
2023-03-04T15:41:50.490Z,30.63
2023-03-04T15:43:54.586Z,31.45
2023-03-04T15:45:57.344Z,34.33
2023-03-04T15:48:00.115Z,29.48
2023-03-04T15:50:04.059Z,36.40
2023-03-04T15:52:08.348Z,27.70
2023-03-04T15:54:14.295Z,32.63
2023-03-04T15:56:20.088Z,44.00
2023-03-04T15:58:24.219Z,38.67
2023-03-04T16:00:27.389Z,37.70
2023-03-04T16:02:30.511Z,41.60
2023-03-04T16:04:33.257Z,39.97
2023-03-04T16:06:36.495Z,34.05
2023-03-04T16:08:39.946Z,38.83
2023-03-04T16:10:43.898Z,31.00
2023-03-04T16:12:46.966Z,35.13
2023-03-04T16:14:51.305Z,32.50
2023-03-04T16:16:54.124Z,33.05
2023-03-04T16:18:56.831Z,38.05
2023-03-04T16:21:00.924Z,38.78
2023-03-04T16:23:04.414Z,37.47
2023-03-04T16:25:07.598Z,36.03
2023-03-04T16:27:11.403Z,34.30
2023-03-04T16:29:14.125Z,31.92
2023-03-04T16:31:19.441Z,36.85
2023-03-04T16:33:22.227Z,35.55
2023-03-04T16:35:27.662Z,29.67
2023-03-04T16:37:30.506Z,37.92
2023-03-04T16:39:33.497Z,39.33
2023-03-04T16:41:37.075Z,33.92
2023-03-04T16:43:40.080Z,39.10
2023-03-04T16:45:43.120Z,30.90
2023-03-04T16:47:47.283Z,32.70
2023-03-04T16:49:50.163Z,25.92
2023-03-04T16:51:52.909Z,34.10
2023-03-04T16:53:57.443Z,28.98
2023-03-04T16:56:04.955Z,27.65
2023-03-04T16:58:08.395Z,27.55
2023-03-04T17:00:12.497Z,29.10
2023-03-04T17:02:17.398Z,30.33
2023-03-04T17:04:22.328Z,28.65
2023-03-04T17:06:25.392Z,29.35
2023-03-04T17:08:28.152Z,30.15
2023-03-04T17:10:30.918Z,30.73
2023-03-04T17:12:33.710Z,32.78
2023-03-04T17:14:36.890Z,30.90
2023-03-04T17:16:39.682Z,27.75
2023-03-04T17:18:44.212Z,30.35
2023-03-04T17:20:48.314Z,31.23
2023-03-04T17:22:51.119Z,28.15
2023-03-04T17:24:53.846Z,24.63
2023-03-04T17:26:56.579Z,29.80
2023-03-04T17:28:59.321Z,25.67
2023-03-04T17:31:02.608Z,29.83
2023-03-04T17:33:05.475Z,27.23
2023-03-04T17:35:09.378Z,28.20
2023-03-04T17:37:13.641Z,27.05
2023-03-04T17:39:16.446Z,30.42
2023-03-04T17:41:19.300Z,26.52
2023-03-04T17:43:22.014Z,29.48
2023-03-04T17:45:24.891Z,29.17
2023-03-04T17:47:27.647Z,35.08
2023-03-04T17:49:30.363Z,33.60
2023-03-04T17:51:34.993Z,28.38
2023-03-04T17:53:39.685Z,28.17
2023-03-04T17:55:44.554Z,26.70
2023-03-04T17:57:47.367Z,30.70
2023-03-04T17:59:50.291Z,28.80
2023-03-04T18:01:54.296Z,31.15
2023-03-04T18:03:57.174Z,25.42
2023-03-04T18:06:00.001Z,26.60
2023-03-04T18:08:02.754Z,30.45
2023-03-04T18:10:08.154Z,30.85
2023-03-04T18:12:11.120Z,35.30
2023-03-04T18:14:13.930Z,37.67
2023-03-04T18:16:23.129Z,30.45
2023-03-04T18:18:26.054Z,34.58
2023-03-04T18:20:28.813Z,37.25
2023-03-04T18:22:31.564Z,36.80
2023-03-04T18:24:34.461Z,40.22
2023-03-04T18:26:38.539Z,37.47
2023-03-04T18:28:41.432Z,39.53
2023-03-04T18:30:44.162Z,31.73
2023-03-04T18:32:52.195Z,26.17
2023-03-04T18:34:55.314Z,27.60
2023-03-04T18:36:58.018Z,31.08
2023-03-04T18:39:02.285Z,31.67
2023-03-04T18:41:07.406Z,31.00
2023-03-04T18:43:13.966Z,32.40
2023-03-04T18:45:17.517Z,28.17
2023-03-04T18:47:20.535Z,34.17
2023-03-04T18:49:24.168Z,29.83
2023-03-04T18:51:26.988Z,36.80
2023-03-04T18:53:30.664Z,41.25
2023-03-04T18:55:33.428Z,35.20
2023-03-04T18:57:36.275Z,39.00
2023-03-04T18:59:44.271Z,34.90
2023-03-04T19:01:47.869Z,32.47
2023-03-04T19:03:51.024Z,29.98
2023-03-04T19:05:55.464Z,34.30
2023-03-04T19:07:58.370Z,32.35
2023-03-04T19:10:01.175Z,31.33
2023-03-04T19:12:06.430Z,33.63
2023-03-04T19:14:09.398Z,30.75
2023-03-04T19:16:13.594Z,32.92
2023-03-04T19:18:16.331Z,33.53
2023-03-04T19:20:19.387Z,31.30
2023-03-04T19:22:22.179Z,32.38
2023-03-04T19:24:25.128Z,33.35
2023-03-04T19:26:27.883Z,30.83
2023-03-04T19:28:30.661Z,30.70
2023-03-04T19:30:33.944Z,28.40
2023-03-04T19:32:38.121Z,33.58
2023-03-04T19:34:40.941Z,32.13
2023-03-04T19:36:43.830Z,33.25
2023-03-04T19:38:46.589Z,33.65
2023-03-04T19:40:49.324Z,31.48
2023-03-04T19:42:52.029Z,29.98
2023-03-04T19:44:55.033Z,32.53
2023-03-04T19:46:57.889Z,31.55
2023-03-04T19:49:04.686Z,26.65
2023-03-04T19:51:14.595Z,32.00
2023-03-04T19:53:18.733Z,30.98
2023-03-04T19:55:21.984Z,35.25
2023-03-04T19:57:24.687Z,31.13
2023-03-04T19:59:27.528Z,31.73
2023-03-04T20:01:32.117Z,31.45
2023-03-04T20:03:34.952Z,34.08
2023-03-04T20:05:39.373Z,31.10
2023-03-04T20:07:43.710Z,31.73
2023-03-04T20:09:46.481Z,33.90
2023-03-04T20:11:59.048Z,30.63
2023-03-04T20:14:03.258Z,31.73
2023-03-04T20:16:08.857Z,28.95
2023-03-04T20:18:11.685Z,34.03
2023-03-04T20:20:15.797Z,31.42
2023-03-04T20:22:19.962Z,30.42
2023-03-04T20:24:23.226Z,31.65
2023-03-04T20:26:26.118Z,32.90
2023-03-04T20:28:29.606Z,33.50
2023-03-04T20:30:32.402Z,32.78
2023-03-04T20:32:35.209Z,38.22
2023-03-04T20:34:38.061Z,33.92
2023-03-04T20:36:40.816Z,32.47
2023-03-04T20:38:45.489Z,35.20
2023-03-04T20:40:48.263Z,33.88
2023-03-04T20:42:50.992Z,33.13
2023-03-04T20:44:53.770Z,32.55
2023-03-04T20:46:56.610Z,32.70
2023-03-04T20:49:01.284Z,34.05
2023-03-04T20:51:04.160Z,35.47
2023-03-04T20:53:06.901Z,32.08
2023-03-04T20:55:11.910Z,35.78
2023-03-04T20:57:14.679Z,33.28
2023-03-04T20:59:17.802Z,32.85
2023-03-04T21:01:20.816Z,39.45
2023-03-04T21:03:23.641Z,31.85
2023-03-04T21:05:27.504Z,32.80
2023-03-04T21:07:30.311Z,33.83
2023-03-04T21:09:33.103Z,39.08
2023-03-04T21:11:40.576Z,34.22
2023-03-04T21:13:44.728Z,41.17
2023-03-04T21:15:48.129Z,38.72
2023-03-04T21:17:51.047Z,36.60
2023-03-04T21:19:53.893Z,36.03
2023-03-04T21:21:58.511Z,39.33
2023-03-04T21:24:01.350Z,35.28
2023-03-04T21:26:04.424Z,37.33
2023-03-04T21:28:08.798Z,41.65
2023-03-04T21:30:12.983Z,41.35
2023-03-04T21:32:24.620Z,39.95
2023-03-04T21:34:33.381Z,39.45
2023-03-04T21:36:36.149Z,41.47
2023-03-04T21:38:39.573Z,40.15
2023-03-04T21:40:42.952Z,41.90
2023-03-04T21:42:45.743Z,40.45
2023-03-04T21:44:51.448Z,36.60
2023-03-04T21:46:54.692Z,41.88
2023-03-04T21:48:57.523Z,37.15
2023-03-04T21:51:02.825Z,36.47
2023-03-04T21:53:05.589Z,38.85
2023-03-04T21:55:09.150Z,36.03
2023-03-04T21:57:13.360Z,40.20
2023-03-04T21:59:17.397Z,33.00
2023-03-04T22:01:23.222Z,39.92
2023-03-04T22:03:27.100Z,37.88
2023-03-04T22:05:29.905Z,40.50
2023-03-04T22:07:34.557Z,34.13
2023-03-04T22:09:37.342Z,36.40
2023-03-04T22:11:40.128Z,37.08
2023-03-04T22:13:43.158Z,39.22
2023-03-04T22:15:46.114Z,34.42
2023-03-04T22:17:50.871Z,36.13
2023-03-04T22:19:53.687Z,31.75
2023-03-04T22:21:56.485Z,32.85
2023-03-04T22:23:59.254Z,35.72
2023-03-04T22:26:04.839Z,36.03
2023-03-04T22:28:08.637Z,37.45
2023-03-04T22:30:12.520Z,34.63
2023-03-04T22:32:16.950Z,33.05
2023-03-04T22:34:21.110Z,32.05
2023-03-04T22:36:23.850Z,31.13
2023-03-04T22:38:26.664Z,30.05
2023-03-04T22:40:29.388Z,28.92
2023-03-04T22:42:32.122Z,27.20
2023-03-04T22:44:35.794Z,30.52
2023-03-04T22:46:39.875Z,30.20
2023-03-04T22:48:42.660Z,26.25
2023-03-04T22:50:46.770Z,24.80
2023-03-04T22:52:50.132Z,33.08
2023-03-04T22:54:53.063Z,30.40
2023-03-04T22:56:55.895Z,28.92
2023-03-04T22:58:58.645Z,29.83
2023-03-04T23:01:02.454Z,31.45
2023-03-04T23:03:06.364Z,30.65
2023-03-04T23:05:10.718Z,28.95
2023-03-04T23:07:14.834Z,29.60
2023-03-04T23:09:17.607Z,28.77
2023-03-04T23:11:22.359Z,29.60
2023-03-04T23:13:25.850Z,32.17
2023-03-04T23:15:28.665Z,29.58
2023-03-04T23:17:31.458Z,31.92
2023-03-04T23:19:34.219Z,32.00
2023-03-04T23:21:38.028Z,28.90
2023-03-04T23:23:42.552Z,32.00
2023-03-04T23:25:46.485Z,32.63
2023-03-04T23:27:49.332Z,35.45
2023-03-04T23:29:52.362Z,36.58
2023-03-04T23:31:55.184Z,30.50
2023-03-04T23:33:59.214Z,36.15
2023-03-04T23:36:02.055Z,37.13
2023-03-04T23:38:04.824Z,35.13
2023-03-04T23:40:10.706Z,34.97
2023-03-04T23:42:13.591Z,35.30
2023-03-04T23:44:16.374Z,32.47
2023-03-04T23:46:19.306Z,33.05
2023-03-04T23:48:22.066Z,29.10
2023-03-04T23:50:24.816Z,34.03
2023-03-04T23:52:28.047Z,38.95
2023-03-04T23:54:31.221Z,37.78
2023-03-04T23:56:35.417Z,31.98
2023-03-04T23:58:38.537Z,32.80
